• Join FlightAware (Why Join?)
  • Login
  • US Flag 
10:25PM EDT


 

Airport Tracker/Info


-or-


 

Live Flight TrackerFlight Track Log ✈ EJA929 ✈ 16-Jun-2013 ✈ KAUS - KELP

Flight Track Log - Related Links

Times and Time Zones

All times are in EDT time to prevent confusion due to time zone crossing. See the EJA929 flight status page for this flight to view local times or setup timezone preferences in your user account.

Time Position Orientation Groundspeed Altitude Reporting Facility
EDT Latitude Longitude Course Direction KTS MPH feet Rate Location/Type
01:38PM 30.0908 -97.6694 278° West 243 280 5,500  Level Houston Center
01:39PM 30.1203 -97.7492 293° West 280 322 8,700 2,640 Climbing Houston Center
01:40PM 30.1692 -97.8286 305° West 295 339 11,000 1,800 Climbing Houston Center
01:41PM 30.2333 -97.9339 305° West 345 397 12,500 1,500 Climbing Houston Center
01:42PM 30.2892 -98.0353 303° West 371 427 14,200 1,500 Climbing Houston Center
01:43PM 30.4196 -98.0397 278° West  Level FlightAware Approximate
01:43PM 30.3186 -98.1578 286° West 386 444 15,700  Level Houston Center
01:44PM 30.3431 -98.2661 285° West 387 445 17,200 1,500 Climbing Houston Center
01:45PM 30.3736 -98.4114 284° West 394 453 18,800 1,380 Climbing Houston Center
01:46PM 30.4003 -98.5392 284° West 401 461 20,100 1,200 Climbing Houston Center
01:47PM 30.4283 -98.6686 284° West 409 471 21,300 1,260 Climbing Houston Center
01:48PM 30.4567 -98.8025 284° West 420 483 22,800 1,440 Climbing Houston Center
01:49PM 30.4858 -98.9358 284° West 423 487 24,300 1,260 Climbing Houston Center
01:50PM 30.5150 -99.0703 284° West 425 489 25,500 1,020 Climbing Houston Center
01:51PM 30.5417 -99.2008 283° West 430 495 26,500 1,080 Climbing Houston Center
01:52PM 30.5775 -99.3675 284° West 445 512 27,800 1,140 Climbing Houston Center
01:53PM 30.6078 -99.5058 284° West 445 512 28,900 1,020 Climbing Houston Center
01:55PM 30.6358 -99.6483 283° West 452 520 30,000 1,140 Climbing Houston Center
01:56PM 30.6653 -99.7900 284° West 452 520 31,300 1,200 Climbing Houston Center
01:57PM 30.6953 -99.9369 283° West 466 536 32,500 1,200 Climbing Houston Center
01:58PM 30.7314 -100.1119 284° West 478 550 33,800 1,140 Climbing Houston Center
01:59PM 30.7606 -100.2575 283° West 472 543 34,900 1,020 Climbing Houston Center
02:00PM 30.7886 -100.4042 283° West 481 554 36,000 480 Climbing Houston Center
02:01PM 30.8186 -100.5536 283° West 482 555 36,000  Level Houston Center
02:02PM 30.8464 -100.6958 283° West 461 531 36,000  Level Houston Center
02:03PM 30.8803 -100.8678 283° West 461 531 36,000  Level Houston Center
02:04PM 30.9072 -101.0072 283° West 459 528 36,000  Level Houston Center
02:05PM 30.9347 -101.1467 283° West 453 521 36,000  Level Houston Center
02:06PM 30.9631 -101.2839 284° West 451 519 36,000  Level Houston Center
02:07PM 30.9897 -101.4386 281° West 445 512 36,000  Level Houston Center
02:08PM 31.0172 -101.5803 283° West 452 520 36,000  Level Houston Center
02:09PM 31.0439 -101.7214 282° West 450 518 36,000  Level Houston Center
02:10PM 31.0683 -101.8653 281° West 451 519 36,000  Level Houston Center
02:11PM 31.0878 -102.0083 279° West 449 517 36,000  Level Houston Center
02:12PM 31.1131 -102.1831 280° West 462 532 36,000  Level Houston Center
02:13PM 31.1317 -102.3336 278° West 477 549 36,000  Level Houston Center
02:14PM 31.1556 -102.4722 281° West 449 517 36,000  Level Albuquerque Center
02:15PM 31.1769 -102.6269 279° West 449 517 36,000  Level Albuquerque Center
02:16PM 31.1978 -102.7711 280° West 449 517 36,000  Level Albuquerque Center
02:17PM 31.2219 -102.9431 279° West 448 516 36,000  Level Albuquerque Center
02:18PM 31.2422 -103.0875 279° West 450 518 36,000  Level Albuquerque Center
02:19PM 31.2606 -103.2314 279° West 450 518 36,000  Level Albuquerque Center
02:20PM 31.2817 -103.3753 280° West 449 517 36,000  Level Albuquerque Center
02:21PM 31.3003 -103.5194 279° West 450 518 36,000  Level Albuquerque Center
02:23PM 31.3203 -103.6628 279° West 449 517 36,000  Level Albuquerque Center
02:24PM 31.3428 -103.8311 279° West 448 516 36,000  Level Albuquerque Center
02:25PM 31.3614 -103.9742 279° West 448 516 36,000  Level Albuquerque Center
02:26PM 31.3822 -104.1181 280° West 450 518 36,000  Level Albuquerque Center
02:27PM 31.3992 -104.2606 278° West 448 516 36,000  Level Albuquerque Center
02:28PM 31.4183 -104.4028 279° West 446 513 36,000 -1,020 Level Albuquerque Center
02:29PM 31.4361 -104.5475 278° West 450 518 33,900 -2,400 Descending Albuquerque Center
02:30PM 31.4586 -104.7242 279° West 459 528 31,100 -2,640 Descending Albuquerque Center
02:31PM 31.4769 -104.8769 278° West 476 548 28,500 -2,520 Descending Albuquerque Center
02:32PM 31.4967 -105.0328 278° West 486 559 26,000 -2,460 Descending Albuquerque Center
02:33PM 31.5156 -105.1850 278° West 480 552 23,500 -2,400 Descending Albuquerque Center
02:34PM 31.5331 -105.3289 278° West 459 528 21,100 -2,280 Descending Albuquerque Center
02:35PM 31.5475 -105.4639 277° West 417 480 18,900 -2,340 Descending Albuquerque Center
02:36PM 31.5667 -105.6153 278° West 391 450 16,400 -2,340 Descending Albuquerque Center
02:36PM 31.5736 -105.6836 277° West 373 429 15,300 -1,860 Descending Albuquerque Center
02:37PM 31.5786 -105.7336 277° West 371 427 14,500 -1,980 Descending Albuquerque Center
02:37PM 31.5867 -105.7878 280° West 347 399 13,500 -1,980 Descending Albuquerque Center
02:38PM 31.6086 -105.8436 295° West 362 417 12,500 -1,920 Descending Albuquerque Center
02:38PM 31.6336 -105.8906 302° West 375 432 11,600 -1,860 Descending Albuquerque Center
02:39PM 31.6664 -105.9422 307° West 380 437 10,600 -1,620 Descending Albuquerque Center
02:39PM 31.6947 -105.9900 305° West 379 436 10,000 -1,020 Descending Albuquerque Center
02:40PM 31.7197 -106.0331 304° West 334 384 9,600 -1,200 Descending Albuquerque Center
02:40PM 31.7417 -106.0706 305° West 291 335 8,800 -1,680 Descending Albuquerque Center
02:41PM 31.7667 -106.1111 306° West 296 341 7,900 -1,680 Descending Albuquerque Center
02:41PM 31.7858 -106.1494 300° West 277 319 7,100 -1,380 Descending Albuquerque Center
02:42PM 31.7928 -106.2083 278° West 259 298 6,500 -960 Descending Albuquerque Center
02:43PM 31.7964 -106.2783 273° West 214 246 5,500 -1,020 Descending Albuquerque Center
02:44PM 31.7986 -106.3361 273° West 133 153 4,400 -780 Descending Albuquerque Center
02:45PM 31.8022 -106.3744 276° West 139 160 3,900 -540 Descending Albuquerque Center
02:47PM 31.8000 -106.3667 270° West  Level FlightAware Approximate
02:54PM 31.8072 -106.3764 270° West  Level Estimated
02:55PM 31.8072 -106.3764 270° West  Level Estimated
02:56PM 31.8072 -106.3764 270° West  Level Estimated
02:57PM 31.8072 -106.3764 270° West  Level Estimated